sensor_id;sensor_type;location;lat;lon;timestamp;P1;durP1;ratioP1;P2;durP2;ratioP2
76051;SDS011;64751;48.708;9.710;2022-12-18T00:01:14;2.90;;;2.60;;
76051;SDS011;64751;48.708;9.710;2022-12-18T00:03:43;3.33;;;2.95;;
76051;SDS011;64751;48.708;9.710;2022-12-18T00:06:11;3.63;;;2.80;;
76051;SDS011;64751;48.708;9.710;2022-12-18T00:08:39;3.53;;;3.05;;
76051;SDS011;64751;48.708;9.710;2022-12-18T00:11:07;3.38;;;3.03;;
76051;SDS011;64751;48.708;9.710;2022-12-18T00:13:37;3.45;;;3.15;;
76051;SDS011;64751;48.708;9.710;2022-12-18T00:16:07;3.58;;;2.97;;
76051;SDS011;64751;48.708;9.710;2022-12-18T00:18:36;3.25;;;2.60;;
76051;SDS011;64751;48.708;9.710;2022-12-18T00:21:05;2.90;;;2.55;;
76051;SDS011;64751;48.708;9.710;2022-12-18T00:23:35;3.10;;;2.72;;
76051;SDS011;64751;48.708;9.710;2022-12-18T00:26:07;3.08;;;2.78;;
76051;SDS011;64751;48.708;9.710;2022-12-18T00:28:41;2.85;;;2.50;;
76051;SDS011;64751;48.708;9.710;2022-12-18T00:31:10;2.70;;;2.13;;
76051;SDS011;64751;48.708;9.710;2022-12-18T00:33:39;3.00;;;2.70;;
76051;SDS011;64751;48.708;9.710;2022-12-18T00:36:10;2.85;;;2.42;;
76051;SDS011;64751;48.708;9.710;2022-12-18T00:38:40;2.95;;;2.42;;
76051;SDS011;64751;48.708;9.710;2022-12-18T00:41:09;3.10;;;2.35;;
76051;SDS011;64751;48.708;9.710;2022-12-18T00:43:38;3.00;;;2.60;;
76051;SDS011;64751;48.708;9.710;2022-12-18T00:46:05;2.88;;;2.25;;
76051;SDS011;64751;48.708;9.710;2022-12-18T00:48:34;2.25;;;1.88;;
76051;SDS011;64751;48.708;9.710;2022-12-18T00:51:02;3.05;;;2.33;;
76051;SDS011;64751;48.708;9.710;2022-12-18T00:53:29;2.50;;;2.28;;
76051;SDS011;64751;48.708;9.710;2022-12-18T00:55:57;2.83;;;2.40;;
76051;SDS011;64751;48.708;9.710;2022-12-18T00:58:24;2.20;;;2.00;;
76051;SDS011;64751;48.708;9.710;2022-12-18T01:00:52;2.10;;;1.90;;
76051;SDS011;64751;48.708;9.710;2022-12-18T01:03:19;2.88;;;2.35;;
76051;SDS011;64751;48.708;9.710;2022-12-18T01:05:48;2.60;;;1.77;;
76051;SDS011;64751;48.708;9.710;2022-12-18T01:08:18;3.95;;;2.35;;
76051;SDS011;64751;48.708;9.710;2022-12-18T01:10:45;2.72;;;2.30;;
76051;SDS011;64751;48.708;9.710;2022-12-18T01:13:13;2.58;;;2.38;;
76051;SDS011;64751;48.708;9.710;2022-12-18T01:15:47;2.40;;;2.20;;
76051;SDS011;64751;48.708;9.710;2022-12-18T01:18:15;3.60;;;2.40;;
76051;SDS011;64751;48.708;9.710;2022-12-18T01:20:42;2.97;;;2.58;;
76051;SDS011;64751;48.708;9.710;2022-12-18T01:23:11;3.13;;;2.47;;
76051;SDS011;64751;48.708;9.710;2022-12-18T01:25:39;2.90;;;2.63;;
76051;SDS011;64751;48.708;9.710;2022-12-18T01:28:09;3.90;;;2.80;;
76051;SDS011;64751;48.708;9.710;2022-12-18T01:30:37;3.10;;;2.70;;
76051;SDS011;64751;48.708;9.710;2022-12-18T01:33:04;2.60;;;2.13;;
76051;SDS011;64751;48.708;9.710;2022-12-18T01:35:32;3.13;;;2.47;;
76051;SDS011;64751;48.708;9.710;2022-12-18T01:38:02;3.90;;;2.72;;
76051;SDS011;64751;48.708;9.710;2022-12-18T01:40:31;2.90;;;2.40;;
76051;SDS011;64751;48.708;9.710;2022-12-18T01:42:58;3.38;;;2.28;;
76051;SDS011;64751;48.708;9.710;2022-12-18T01:45:27;3.38;;;2.15;;
76051;SDS011;64751;48.708;9.710;2022-12-18T01:47:55;2.90;;;2.53;;
76051;SDS011;64751;48.708;9.710;2022-12-18T01:50:25;3.03;;;2.65;;
76051;SDS011;64751;48.708;9.710;2022-12-18T01:52:58;2.65;;;2.35;;
76051;SDS011;64751;48.708;9.710;2022-12-18T01:55:31;3.60;;;3.30;;
76051;SDS011;64751;48.708;9.710;2022-12-18T01:58:02;3.45;;;2.85;;
76051;SDS011;64751;48.708;9.710;2022-12-18T02:00:31;3.08;;;2.70;;
76051;SDS011;64751;48.708;9.710;2022-12-18T02:02:58;2.75;;;2.42;;
76051;SDS011;64751;48.708;9.710;2022-12-18T02:05:29;3.00;;;2.50;;
76051;SDS011;64751;48.708;9.710;2022-12-18T02:08:07;3.08;;;2.38;;
76051;SDS011;64751;48.708;9.710;2022-12-18T02:10:43;3.47;;;3.08;;
76051;SDS011;64751;48.708;9.710;2022-12-18T02:13:17;3.70;;;2.67;;
76051;SDS011;64751;48.708;9.710;2022-12-18T02:15:51;3.03;;;2.58;;
76051;SDS011;64751;48.708;9.710;2022-12-18T02:18:27;3.47;;;2.92;;
76051;SDS011;64751;48.708;9.710;2022-12-18T02:23:37;2.63;;;2.33;;
76051;SDS011;64751;48.708;9.710;2022-12-18T02:26:19;2.45;;;2.03;;
76051;SDS011;64751;48.708;9.710;2022-12-18T02:28:52;2.63;;;2.40;;
76051;SDS011;64751;48.708;9.710;2022-12-18T02:31:23;3.42;;;2.83;;
76051;SDS011;64751;48.708;9.710;2022-12-18T02:33:54;3.25;;;2.95;;
76051;SDS011;64751;48.708;9.710;2022-12-18T02:36:27;2.90;;;2.55;;
76051;SDS011;64751;48.708;9.710;2022-12-18T02:38:56;3.60;;;3.30;;
76051;SDS011;64751;48.708;9.710;2022-12-18T02:41:28;3.10;;;2.47;;
76051;SDS011;64751;48.708;9.710;2022-12-18T02:43:58;2.80;;;2.50;;
76051;SDS011;64751;48.708;9.710;2022-12-18T02:46:29;3.58;;;2.75;;
76051;SDS011;64751;48.708;9.710;2022-12-18T02:49:09;4.18;;;3.10;;
76051;SDS011;64751;48.708;9.710;2022-12-18T02:51:45;3.67;;;2.53;;
76051;SDS011;64751;48.708;9.710;2022-12-18T02:54:21;2.67;;;2.47;;
76051;SDS011;64751;48.708;9.710;2022-12-18T02:56:57;3.33;;;2.58;;
76051;SDS011;64751;48.708;9.710;2022-12-18T02:59:33;2.97;;;2.63;;
76051;SDS011;64751;48.708;9.710;2022-12-18T03:02:11;2.78;;;2.38;;
76051;SDS011;64751;48.708;9.710;2022-12-18T03:04:47;3.58;;;2.88;;
76051;SDS011;64751;48.708;9.710;2022-12-18T03:07:21;3.67;;;2.92;;
76051;SDS011;64751;48.708;9.710;2022-12-18T03:10:01;4.78;;;2.85;;
76051;SDS011;64751;48.708;9.710;2022-12-18T03:12:32;3.35;;;2.67;;
76051;SDS011;64751;48.708;9.710;2022-12-18T03:15:04;3.00;;;2.67;;
76051;SDS011;64751;48.708;9.710;2022-12-18T03:17:38;3.80;;;3.30;;
76051;SDS011;64751;48.708;9.710;2022-12-18T03:20:10;4.13;;;3.50;;
76051;SDS011;64751;48.708;9.710;2022-12-18T03:22:41;3.40;;;2.63;;
76051;SDS011;64751;48.708;9.710;2022-12-18T03:25:13;3.20;;;2.90;;
76051;SDS011;64751;48.708;9.710;2022-12-18T03:27:44;2.97;;;2.42;;
76051;SDS011;64751;48.708;9.710;2022-12-18T03:30:16;3.50;;;2.97;;
76051;SDS011;64751;48.708;9.710;2022-12-18T03:32:47;3.85;;;2.65;;
76051;SDS011;64751;48.708;9.710;2022-12-18T03:35:21;3.00;;;2.70;;
76051;SDS011;64751;48.708;9.710;2022-12-18T03:37:52;3.97;;;3.25;;
76051;SDS011;64751;48.708;9.710;2022-12-18T03:40:20;3.00;;;2.70;;
76051;SDS011;64751;48.708;9.710;2022-12-18T03:42:56;2.95;;;2.65;;
76051;SDS011;64751;48.708;9.710;2022-12-18T03:45:32;3.65;;;3.35;;
76051;SDS011;64751;48.708;9.710;2022-12-18T03:48:06;4.22;;;3.78;;
76051;SDS011;64751;48.708;9.710;2022-12-18T03:50:43;2.88;;;2.33;;
76051;SDS011;64751;48.708;9.710;2022-12-18T03:53:22;4.10;;;2.65;;
76051;SDS011;64751;48.708;9.710;2022-12-18T03:55:55;3.08;;;2.50;;
76051;SDS011;64751;48.708;9.710;2022-12-18T03:58:31;3.38;;;2.90;;
76051;SDS011;64751;48.708;9.710;2022-12-18T04:01:14;3.20;;;2.72;;
76051;SDS011;64751;48.708;9.710;2022-12-18T04:03:43;3.70;;;3.13;;
76051;SDS011;64751;48.708;9.710;2022-12-18T04:06:13;3.13;;;2.67;;
76051;SDS011;64751;48.708;9.710;2022-12-18T04:08:44;3.78;;;3.28;;
76051;SDS011;64751;48.708;9.710;2022-12-18T04:11:16;4.13;;;3.00;;
76051;SDS011;64751;48.708;9.710;2022-12-18T04:13:46;3.95;;;3.55;;
76051;SDS011;64751;48.708;9.710;2022-12-18T04:16:19;4.40;;;3.67;;
76051;SDS011;64751;48.708;9.710;2022-12-18T04:18:52;4.10;;;3.15;;
76051;SDS011;64751;48.708;9.710;2022-12-18T04:21:21;3.17;;;2.88;;
76051;SDS011;64751;48.708;9.710;2022-12-18T04:23:49;3.72;;;2.90;;
76051;SDS011;64751;48.708;9.710;2022-12-18T04:26:20;3.53;;;2.83;;
76051;SDS011;64751;48.708;9.710;2022-12-18T04:29:11;3.35;;;2.83;;
76051;SDS011;64751;48.708;9.710;2022-12-18T04:31:39;4.90;;;3.40;;
76051;SDS011;64751;48.708;9.710;2022-12-18T04:34:07;3.28;;;2.95;;
76051;SDS011;64751;48.708;9.710;2022-12-18T04:36:40;3.60;;;3.28;;
76051;SDS011;64751;48.708;9.710;2022-12-18T04:39:08;3.35;;;3.05;;
76051;SDS011;64751;48.708;9.710;2022-12-18T04:41:35;3.83;;;3.33;;
76051;SDS011;64751;48.708;9.710;2022-12-18T04:44:04;4.00;;;3.03;;
76051;SDS011;64751;48.708;9.710;2022-12-18T04:46:33;4.43;;;3.22;;
76051;SDS011;64751;48.708;9.710;2022-12-18T04:49:01;3.83;;;3.38;;
76051;SDS011;64751;48.708;9.710;2022-12-18T04:51:28;3.70;;;3.33;;
76051;SDS011;64751;48.708;9.710;2022-12-18T04:53:56;4.32;;;3.75;;
76051;SDS011;64751;48.708;9.710;2022-12-18T04:56:23;4.32;;;3.92;;
76051;SDS011;64751;48.708;9.710;2022-12-18T04:58:51;3.95;;;3.33;;
76051;SDS011;64751;48.708;9.710;2022-12-18T05:01:18;4.03;;;3.63;;
76051;SDS011;64751;48.708;9.710;2022-12-18T05:03:47;3.72;;;3.28;;
76051;SDS011;64751;48.708;9.710;2022-12-18T05:06:15;4.22;;;3.53;;
76051;SDS011;64751;48.708;9.710;2022-12-18T05:08:42;3.97;;;3.35;;
76051;SDS011;64751;48.708;9.710;2022-12-18T05:11:10;4.28;;;3.75;;
76051;SDS011;64751;48.708;9.710;2022-12-18T05:13:41;4.00;;;3.42;;
76051;SDS011;64751;48.708;9.710;2022-12-18T05:16:09;4.75;;;3.72;;
76051;SDS011;64751;48.708;9.710;2022-12-18T05:18:37;4.38;;;3.70;;
76051;SDS011;64751;48.708;9.710;2022-12-18T05:21:06;4.22;;;3.83;;
76051;SDS011;64751;48.708;9.710;2022-12-18T05:23:34;4.80;;;4.30;;
76051;SDS011;64751;48.708;9.710;2022-12-18T05:26:03;3.83;;;3.42;;
76051;SDS011;64751;48.708;9.710;2022-12-18T05:28:32;4.28;;;3.88;;
76051;SDS011;64751;48.708;9.710;2022-12-18T05:31:02;5.63;;;3.90;;
76051;SDS011;64751;48.708;9.710;2022-12-18T05:33:32;4.32;;;3.50;;
76051;SDS011;64751;48.708;9.710;2022-12-18T05:36:01;5.25;;;4.20;;
76051;SDS011;64751;48.708;9.710;2022-12-18T05:38:31;4.35;;;3.40;;
76051;SDS011;64751;48.708;9.710;2022-12-18T05:41:00;4.45;;;3.78;;
76051;SDS011;64751;48.708;9.710;2022-12-18T05:43:27;3.83;;;3.47;;
76051;SDS011;64751;48.708;9.710;2022-12-18T05:45:55;4.00;;;3.58;;
76051;SDS011;64751;48.708;9.710;2022-12-18T05:48:23;4.72;;;3.30;;
76051;SDS011;64751;48.708;9.710;2022-12-18T05:50:51;4.93;;;3.95;;
76051;SDS011;64751;48.708;9.710;2022-12-18T05:53:19;3.97;;;3.13;;
76051;SDS011;64751;48.708;9.710;2022-12-18T05:55:49;3.58;;;3.28;;
76051;SDS011;64751;48.708;9.710;2022-12-18T05:58:16;3.63;;;3.08;;
76051;SDS011;64751;48.708;9.710;2022-12-18T06:00:44;4.65;;;3.60;;
76051;SDS011;64751;48.708;9.710;2022-12-18T06:03:13;4.47;;;3.47;;
76051;SDS011;64751;48.708;9.710;2022-12-18T06:05:42;4.38;;;3.97;;
76051;SDS011;64751;48.708;9.710;2022-12-18T06:08:11;4.05;;;3.67;;
76051;SDS011;64751;48.708;9.710;2022-12-18T06:10:40;4.70;;;3.95;;
76051;SDS011;64751;48.708;9.710;2022-12-18T06:13:09;4.00;;;3.58;;
76051;SDS011;64751;48.708;9.710;2022-12-18T06:15:36;4.88;;;4.22;;
76051;SDS011;64751;48.708;9.710;2022-12-18T06:18:04;4.75;;;3.15;;
76051;SDS011;64751;48.708;9.710;2022-12-18T06:20:32;4.32;;;3.70;;
76051;SDS011;64751;48.708;9.710;2022-12-18T06:23:02;4.63;;;3.45;;
76051;SDS011;64751;48.708;9.710;2022-12-18T06:25:30;4.60;;;3.28;;
76051;SDS011;64751;48.708;9.710;2022-12-18T06:27:58;3.47;;;3.13;;
76051;SDS011;64751;48.708;9.710;2022-12-18T06:30:27;4.22;;;3.80;;
76051;SDS011;64751;48.708;9.710;2022-12-18T06:32:54;4.60;;;3.83;;
76051;SDS011;64751;48.708;9.710;2022-12-18T06:35:22;4.53;;;4.13;;
76051;SDS011;64751;48.708;9.710;2022-12-18T06:37:50;4.75;;;3.83;;
76051;SDS011;64751;48.708;9.710;2022-12-18T06:40:18;4.72;;;3.65;;
76051;SDS011;64751;48.708;9.710;2022-12-18T06:42:45;5.15;;;4.00;;
76051;SDS011;64751;48.708;9.710;2022-12-18T06:45:13;4.68;;;4.20;;
76051;SDS011;64751;48.708;9.710;2022-12-18T06:47:45;4.15;;;3.55;;
76051;SDS011;64751;48.708;9.710;2022-12-18T06:50:13;4.72;;;3.67;;
76051;SDS011;64751;48.708;9.710;2022-12-18T06:52:40;5.25;;;3.75;;
76051;SDS011;64751;48.708;9.710;2022-12-18T06:55:10;4.40;;;3.92;;
76051;SDS011;64751;48.708;9.710;2022-12-18T06:57:38;5.68;;;3.78;;
76051;SDS011;64751;48.708;9.710;2022-12-18T07:00:06;5.00;;;4.13;;
76051;SDS011;64751;48.708;9.710;2022-12-18T07:02:34;4.63;;;3.85;;
76051;SDS011;64751;48.708;9.710;2022-12-18T07:05:04;4.30;;;3.90;;
76051;SDS011;64751;48.708;9.710;2022-12-18T07:07:33;4.00;;;3.60;;
76051;SDS011;64751;48.708;9.710;2022-12-18T07:10:00;5.05;;;4.55;;
76051;SDS011;64751;48.708;9.710;2022-12-18T07:12:28;5.05;;;4.55;;
76051;SDS011;64751;48.708;9.710;2022-12-18T07:14:55;5.35;;;4.53;;
76051;SDS011;64751;48.708;9.710;2022-12-18T07:17:23;3.88;;;3.47;;
76051;SDS011;64751;48.708;9.710;2022-12-18T07:19:50;4.32;;;3.92;;
76051;SDS011;64751;48.708;9.710;2022-12-18T07:22:19;4.07;;;3.50;;
76051;SDS011;64751;48.708;9.710;2022-12-18T07:24:46;5.95;;;4.38;;
76051;SDS011;64751;48.708;9.710;2022-12-18T07:27:16;5.85;;;4.57;;
76051;SDS011;64751;48.708;9.710;2022-12-18T07:29:44;5.65;;;4.75;;
76051;SDS011;64751;48.708;9.710;2022-12-18T07:32:11;5.65;;;4.03;;
76051;SDS011;64751;48.708;9.710;2022-12-18T07:34:39;6.05;;;4.40;;
76051;SDS011;64751;48.708;9.710;2022-12-18T07:37:06;5.00;;;4.35;;
76051;SDS011;64751;48.708;9.710;2022-12-18T07:39:35;4.32;;;3.85;;
76051;SDS011;64751;48.708;9.710;2022-12-18T07:42:03;5.85;;;4.68;;
76051;SDS011;64751;48.708;9.710;2022-12-18T07:44:48;4.05;;;3.65;;
76051;SDS011;64751;48.708;9.710;2022-12-18T07:47:16;4.32;;;3.92;;
76051;SDS011;64751;48.708;9.710;2022-12-18T07:49:43;5.10;;;4.50;;
76051;SDS011;64751;48.708;9.710;2022-12-18T07:52:11;6.47;;;5.15;;
76051;SDS011;64751;48.708;9.710;2022-12-18T07:54:40;5.13;;;4.22;;
76051;SDS011;64751;48.708;9.710;2022-12-18T07:57:08;5.15;;;4.07;;
76051;SDS011;64751;48.708;9.710;2022-12-18T07:59:35;4.95;;;4.43;;
76051;SDS011;64751;48.708;9.710;2022-12-18T08:02:03;4.72;;;4.22;;
76051;SDS011;64751;48.708;9.710;2022-12-18T08:04:30;4.22;;;3.83;;
76051;SDS011;64751;48.708;9.710;2022-12-18T08:07:00;5.65;;;4.47;;
76051;SDS011;64751;48.708;9.710;2022-12-18T08:09:27;5.45;;;4.13;;
76051;SDS011;64751;48.708;9.710;2022-12-18T08:11:56;5.20;;;4.38;;
76051;SDS011;64751;48.708;9.710;2022-12-18T08:14:24;5.25;;;4.75;;
76051;SDS011;64751;48.708;9.710;2022-12-18T08:16:51;5.93;;;4.43;;
76051;SDS011;64751;48.708;9.710;2022-12-18T08:19:19;4.65;;;4.05;;
76051;SDS011;64751;48.708;9.710;2022-12-18T08:21:46;5.78;;;4.85;;
76051;SDS011;64751;48.708;9.710;2022-12-18T08:24:14;5.45;;;4.70;;
76051;SDS011;64751;48.708;9.710;2022-12-18T08:26:41;5.78;;;4.75;;
76051;SDS011;64751;48.708;9.710;2022-12-18T08:29:10;4.90;;;4.40;;
76051;SDS011;64751;48.708;9.710;2022-12-18T08:31:38;5.20;;;4.70;;
76051;SDS011;64751;48.708;9.710;2022-12-18T08:34:05;4.45;;;3.90;;
76051;SDS011;64751;48.708;9.710;2022-12-18T08:36:33;4.80;;;4.30;;
76051;SDS011;64751;48.708;9.710;2022-12-18T08:39:00;4.18;;;3.78;;
76051;SDS011;64751;48.708;9.710;2022-12-18T08:41:28;4.90;;;4.03;;
76051;SDS011;64751;48.708;9.710;2022-12-18T08:43:55;4.28;;;3.88;;
76051;SDS011;64751;48.708;9.710;2022-12-18T08:46:42;5.40;;;4.43;;
76051;SDS011;64751;48.708;9.710;2022-12-18T08:49:10;4.45;;;4.05;;
76051;SDS011;64751;48.708;9.710;2022-12-18T08:51:38;5.55;;;4.90;;
76051;SDS011;64751;48.708;9.710;2022-12-18T08:54:06;4.88;;;4.07;;
76051;SDS011;64751;48.708;9.710;2022-12-18T08:56:37;5.32;;;4.43;;
76051;SDS011;64751;48.708;9.710;2022-12-18T08:59:05;4.85;;;4.05;;
76051;SDS011;64751;48.708;9.710;2022-12-18T09:01:32;6.00;;;5.07;;
76051;SDS011;64751;48.708;9.710;2022-12-18T09:04:01;5.25;;;4.75;;
76051;SDS011;64751;48.708;9.710;2022-12-18T09:06:28;5.22;;;4.60;;
76051;SDS011;64751;48.708;9.710;2022-12-18T09:08:56;4.82;;;3.97;;
76051;SDS011;64751;48.708;9.710;2022-12-18T09:11:25;4.40;;;3.90;;
76051;SDS011;64751;48.708;9.710;2022-12-18T09:13:54;4.95;;;4.13;;
76051;SDS011;64751;48.708;9.710;2022-12-18T09:16:22;4.68;;;4.10;;
76051;SDS011;64751;48.708;9.710;2022-12-18T09:18:50;4.10;;;3.63;;
76051;SDS011;64751;48.708;9.710;2022-12-18T09:21:21;4.70;;;3.97;;
76051;SDS011;64751;48.708;9.710;2022-12-18T09:23:49;6.38;;;4.72;;
76051;SDS011;64751;48.708;9.710;2022-12-18T09:26:17;5.00;;;4.43;;
76051;SDS011;64751;48.708;9.710;2022-12-18T09:28:44;5.32;;;4.32;;
76051;SDS011;64751;48.708;9.710;2022-12-18T09:31:12;4.90;;;4.40;;
76051;SDS011;64751;48.708;9.710;2022-12-18T09:33:43;4.93;;;4.20;;
76051;SDS011;64751;48.708;9.710;2022-12-18T09:36:12;5.05;;;4.20;;
76051;SDS011;64751;48.708;9.710;2022-12-18T09:38:42;4.93;;;4.43;;
76051;SDS011;64751;48.708;9.710;2022-12-18T09:41:15;4.65;;;4.15;;
76051;SDS011;64751;48.708;9.710;2022-12-18T09:43:52;4.00;;;3.60;;
76051;SDS011;64751;48.708;9.710;2022-12-18T09:46:25;4.82;;;4.32;;
76051;SDS011;64751;48.708;9.710;2022-12-18T09:48:57;4.65;;;4.20;;
76051;SDS011;64751;48.708;9.710;2022-12-18T09:51:27;5.68;;;4.50;;
76051;SDS011;64751;48.708;9.710;2022-12-18T09:54:00;4.43;;;3.92;;
76051;SDS011;64751;48.708;9.710;2022-12-18T09:56:31;4.93;;;4.22;;
76051;SDS011;64751;48.708;9.710;2022-12-18T09:59:03;5.18;;;4.45;;
76051;SDS011;64751;48.708;9.710;2022-12-18T10:01:31;5.18;;;4.28;;
76051;SDS011;64751;48.708;9.710;2022-12-18T10:03:59;4.32;;;3.92;;
76051;SDS011;64751;48.708;9.710;2022-12-18T10:06:28;5.00;;;3.85;;
76051;SDS011;64751;48.708;9.710;2022-12-18T10:09:05;4.32;;;3.72;;
76051;SDS011;64751;48.708;9.710;2022-12-18T10:11:43;4.65;;;3.85;;
76051;SDS011;64751;48.708;9.710;2022-12-18T10:14:18;4.65;;;4.07;;
76051;SDS011;64751;48.708;9.710;2022-12-18T10:16:53;4.85;;;4.18;;
76051;SDS011;64751;48.708;9.710;2022-12-18T10:19:32;4.97;;;3.95;;
76051;SDS011;64751;48.708;9.710;2022-12-18T10:22:10;4.43;;;4.03;;
76051;SDS011;64751;48.708;9.710;2022-12-18T10:24:47;5.40;;;4.65;;
76051;SDS011;64751;48.708;9.710;2022-12-18T10:27:22;4.28;;;3.50;;
76051;SDS011;64751;48.708;9.710;2022-12-18T10:29:52;5.25;;;4.75;;
76051;SDS011;64751;48.708;9.710;2022-12-18T10:32:20;4.68;;;4.15;;
76051;SDS011;64751;48.708;9.710;2022-12-18T10:34:51;4.53;;;3.95;;
76051;SDS011;64751;48.708;9.710;2022-12-18T10:37:21;4.75;;;4.05;;
76051;SDS011;64751;48.708;9.710;2022-12-18T10:40:04;4.55;;;3.97;;
76051;SDS011;64751;48.708;9.710;2022-12-18T10:42:35;4.53;;;4.13;;
76051;SDS011;64751;48.708;9.710;2022-12-18T10:45:11;4.80;;;4.03;;
76051;SDS011;64751;48.708;9.710;2022-12-18T10:47:42;4.82;;;3.88;;
76051;SDS011;64751;48.708;9.710;2022-12-18T10:50:19;4.53;;;3.95;;
76051;SDS011;64751;48.708;9.710;2022-12-18T10:52:55;4.40;;;4.00;;
76051;SDS011;64751;48.708;9.710;2022-12-18T10:55:26;5.20;;;3.80;;
76051;SDS011;64751;48.708;9.710;2022-12-18T10:58:13;4.88;;;4.43;;
76051;SDS011;64751;48.708;9.710;2022-12-18T11:00:49;4.68;;;4.20;;
76051;SDS011;64751;48.708;9.710;2022-12-18T11:03:31;4.90;;;3.80;;
76051;SDS011;64751;48.708;9.710;2022-12-18T11:06:02;4.13;;;3.40;;
76051;SDS011;64751;48.708;9.710;2022-12-18T11:08:31;5.70;;;4.50;;
76051;SDS011;64751;48.708;9.710;2022-12-18T11:11:00;4.57;;;3.78;;
76051;SDS011;64751;48.708;9.710;2022-12-18T11:13:29;4.57;;;3.80;;
76051;SDS011;64751;48.708;9.710;2022-12-18T11:15:58;5.80;;;3.83;;
76051;SDS011;64751;48.708;9.710;2022-12-18T11:18:27;4.20;;;3.78;;
76051;SDS011;64751;48.708;9.710;2022-12-18T11:20:57;4.35;;;3.72;;
76051;SDS011;64751;48.708;9.710;2022-12-18T11:23:27;4.30;;;3.53;;
76051;SDS011;64751;48.708;9.710;2022-12-18T11:25:58;4.13;;;3.67;;
76051;SDS011;64751;48.708;9.710;2022-12-18T11:28:33;4.40;;;4.00;;
76051;SDS011;64751;48.708;9.710;2022-12-18T11:31:11;4.57;;;3.85;;
76051;SDS011;64751;48.708;9.710;2022-12-18T11:33:52;5.38;;;4.57;;
76051;SDS011;64751;48.708;9.710;2022-12-18T11:36:28;4.28;;;3.78;;
76051;SDS011;64751;48.708;9.710;2022-12-18T11:38:59;4.45;;;3.95;;
76051;SDS011;64751;48.708;9.710;2022-12-18T11:41:34;4.40;;;4.00;;
76051;SDS011;64751;48.708;9.710;2022-12-18T11:44:31;5.30;;;4.30;;
76051;SDS011;64751;48.708;9.710;2022-12-18T11:47:08;4.82;;;3.67;;
76051;SDS011;64751;48.708;9.710;2022-12-18T11:49:49;4.68;;;4.03;;
76051;SDS011;64751;48.708;9.710;2022-12-18T11:52:18;5.07;;;4.22;;
76051;SDS011;64751;48.708;9.710;2022-12-18T11:57:22;5.22;;;3.83;;
76051;SDS011;64751;48.708;9.710;2022-12-18T12:00:02;4.60;;;4.18;;
76051;SDS011;64751;48.708;9.710;2022-12-18T12:05:29;4.90;;;4.22;;
76051;SDS011;64751;48.708;9.710;2022-12-18T12:08:10;5.18;;;4.32;;
76051;SDS011;64751;48.708;9.710;2022-12-18T12:10:49;4.30;;;3.75;;
76051;SDS011;64751;48.708;9.710;2022-12-18T12:13:34;4.40;;;3.97;;
76051;SDS011;64751;48.708;9.710;2022-12-18T12:16:13;5.13;;;4.55;;
76051;SDS011;64751;48.708;9.710;2022-12-18T12:18:51;5.55;;;4.97;;
76051;SDS011;64751;48.708;9.710;2022-12-18T12:21:32;4.55;;;3.88;;
76051;SDS011;64751;48.708;9.710;2022-12-18T12:24:10;5.80;;;4.07;;
76051;SDS011;64751;48.708;9.710;2022-12-18T12:26:53;3.90;;;3.40;;
76051;SDS011;64751;48.708;9.710;2022-12-18T12:29:33;4.60;;;4.20;;
76051;SDS011;64751;48.708;9.710;2022-12-18T12:32:17;4.57;;;4.18;;
76051;SDS011;64751;48.708;9.710;2022-12-18T12:34:55;5.22;;;4.72;;
76051;SDS011;64751;48.708;9.710;2022-12-18T12:37:38;4.25;;;3.85;;
76051;SDS011;64751;48.708;9.710;2022-12-18T12:40:17;5.10;;;4.70;;
76051;SDS011;64751;48.708;9.710;2022-12-18T12:42:47;3.97;;;3.55;;
76051;SDS011;64751;48.708;9.710;2022-12-18T12:45:39;4.55;;;4.13;;
76051;SDS011;64751;48.708;9.710;2022-12-18T12:48:15;4.88;;;4.38;;
76051;SDS011;64751;48.708;9.710;2022-12-18T12:50:45;5.70;;;4.28;;
76051;SDS011;64751;48.708;9.710;2022-12-18T12:53:17;4.47;;;4.03;;
76051;SDS011;64751;48.708;9.710;2022-12-18T12:55:51;4.57;;;4.18;;
76051;SDS011;64751;48.708;9.710;2022-12-18T12:58:20;5.07;;;4.57;;
76051;SDS011;64751;48.708;9.710;2022-12-18T13:01:02;4.97;;;4.03;;
76051;SDS011;64751;48.708;9.710;2022-12-18T13:03:41;4.47;;;3.78;;
76051;SDS011;64751;48.708;9.710;2022-12-18T13:08:52;4.45;;;3.92;;
76051;SDS011;64751;48.708;9.710;2022-12-18T13:11:29;4.90;;;4.35;;
76051;SDS011;64751;48.708;9.710;2022-12-18T13:14:20;4.97;;;3.88;;
76051;SDS011;64751;48.708;9.710;2022-12-18T13:16:51;4.82;;;3.83;;
76051;SDS011;64751;48.708;9.710;2022-12-18T13:19:21;4.95;;;4.13;;
76051;SDS011;64751;48.708;9.710;2022-12-18T13:24:23;3.97;;;3.50;;
76051;SDS011;64751;48.708;9.710;2022-12-18T13:26:53;5.10;;;4.10;;
76051;SDS011;64751;48.708;9.710;2022-12-18T13:38:00;5.13;;;4.45;;
76051;SDS011;64751;48.708;9.710;2022-12-18T13:43:28;4.63;;;4.18;;
76051;SDS011;64751;48.708;9.710;2022-12-18T13:46:00;4.68;;;4.18;;
76051;SDS011;64751;48.708;9.710;2022-12-18T13:48:33;4.90;;;4.20;;
76051;SDS011;64751;48.708;9.710;2022-12-18T13:51:03;4.80;;;3.88;;
76051;SDS011;64751;48.708;9.710;2022-12-18T13:53:34;4.88;;;3.72;;
76051;SDS011;64751;48.708;9.710;2022-12-18T13:56:06;4.25;;;3.85;;
76051;SDS011;64751;48.708;9.710;2022-12-18T13:58:36;4.47;;;3.83;;
76051;SDS011;64751;48.708;9.710;2022-12-18T14:01:04;4.22;;;3.83;;
76051;SDS011;64751;48.708;9.710;2022-12-18T14:03:33;4.53;;;4.05;;
76051;SDS011;64751;48.708;9.710;2022-12-18T14:06:01;4.10;;;3.70;;
76051;SDS011;64751;48.708;9.710;2022-12-18T14:08:34;4.55;;;4.15;;
76051;SDS011;64751;48.708;9.710;2022-12-18T14:13:36;4.13;;;3.70;;
76051;SDS011;64751;48.708;9.710;2022-12-18T14:16:12;4.57;;;4.05;;
76051;SDS011;64751;48.708;9.710;2022-12-18T14:18:43;4.85;;;4.07;;
76051;SDS011;64751;48.708;9.710;2022-12-18T14:21:23;4.45;;;4.05;;
76051;SDS011;64751;48.708;9.710;2022-12-18T14:24:03;4.28;;;3.88;;
76051;SDS011;64751;48.708;9.710;2022-12-18T14:26:32;4.35;;;3.70;;
76051;SDS011;64751;48.708;9.710;2022-12-18T14:29:00;4.90;;;4.40;;
76051;SDS011;64751;48.708;9.710;2022-12-18T14:31:44;5.10;;;4.45;;
76051;SDS011;64751;48.708;9.710;2022-12-18T14:34:16;4.10;;;3.65;;
76051;SDS011;64751;48.708;9.710;2022-12-18T14:36:51;4.20;;;3.75;;
76051;SDS011;64751;48.708;9.710;2022-12-18T14:39:19;4.38;;;3.97;;
76051;SDS011;64751;48.708;9.710;2022-12-18T14:41:48;4.05;;;3.58;;
76051;SDS011;64751;48.708;9.710;2022-12-18T14:44:15;4.07;;;3.65;;
76051;SDS011;64751;48.708;9.710;2022-12-18T14:46:44;4.65;;;4.20;;
76051;SDS011;64751;48.708;9.710;2022-12-18T14:49:19;4.05;;;3.70;;
76051;SDS011;64751;48.708;9.710;2022-12-18T14:51:52;4.68;;;4.00;;
76051;SDS011;64751;48.708;9.710;2022-12-18T14:54:21;4.50;;;4.10;;
76051;SDS011;64751;48.708;9.710;2022-12-18T14:56:51;4.60;;;4.20;;
76051;SDS011;64751;48.708;9.710;2022-12-18T14:59:23;4.70;;;4.20;;
76051;SDS011;64751;48.708;9.710;2022-12-18T15:01:57;4.50;;;4.05;;
76051;SDS011;64751;48.708;9.710;2022-12-18T15:04:30;4.55;;;4.15;;
76051;SDS011;64751;48.708;9.710;2022-12-18T15:07:04;4.38;;;3.97;;
76051;SDS011;64751;48.708;9.710;2022-12-18T15:09:35;3.83;;;3.33;;
76051;SDS011;64751;48.708;9.710;2022-12-18T15:12:04;4.38;;;3.92;;
76051;SDS011;64751;48.708;9.710;2022-12-18T15:14:33;4.82;;;4.30;;
76051;SDS011;64751;48.708;9.710;2022-12-18T15:17:03;4.35;;;3.95;;
76051;SDS011;64751;48.708;9.710;2022-12-18T15:19:39;4.85;;;4.03;;
76051;SDS011;64751;48.708;9.710;2022-12-18T15:22:17;4.15;;;3.75;;
76051;SDS011;64751;48.708;9.710;2022-12-18T15:24:47;4.13;;;3.67;;
76051;SDS011;64751;48.708;9.710;2022-12-18T15:30:16;4.88;;;3.85;;
76051;SDS011;64751;48.708;9.710;2022-12-18T15:32:45;5.15;;;4.65;;
76051;SDS011;64751;48.708;9.710;2022-12-18T15:35:17;4.05;;;3.47;;
76051;SDS011;64751;48.708;9.710;2022-12-18T15:37:47;4.25;;;3.45;;
76051;SDS011;64751;48.708;9.710;2022-12-18T15:40:16;4.50;;;3.78;;
76051;SDS011;64751;48.708;9.710;2022-12-18T15:42:44;4.85;;;3.60;;